sensor_id;sensor_type;location;lat;lon;timestamp;pressure;altitude;pressure_sealevel;temperature;humidity
62725;BME280;49026;52.600;4.694;2023-05-23T00:00:13;102039.47;;;11.93;71.38
62725;BME280;49026;52.600;4.694;2023-05-23T00:02:39;102043.81;;;11.95;71.21
62725;BME280;49026;52.600;4.694;2023-05-23T00:05:05;102046.28;;;12.01;71.00
62725;BME280;49026;52.600;4.694;2023-05-23T00:07:33;102052.34;;;12.05;71.27
62725;BME280;49026;52.600;4.694;2023-05-23T00:09:59;102051.38;;;12.08;71.69
62725;BME280;49026;52.600;4.694;2023-05-23T00:12:24;102050.53;;;12.07;71.97
62725;BME280;49026;52.600;4.694;2023-05-23T00:14:49;102054.91;;;12.08;71.53
62725;BME280;49026;52.600;4.694;2023-05-23T00:17:17;102051.28;;;12.11;71.53
62725;BME280;49026;52.600;4.694;2023-05-23T00:19:46;102053.03;;;12.12;71.56
62725;BME280;49026;52.600;4.694;2023-05-23T00:22:14;102049.47;;;12.13;71.08
62725;BME280;49026;52.600;4.694;2023-05-23T00:24:40;102050.44;;;12.10;71.30
62725;BME280;49026;52.600;4.694;2023-05-23T00:27:06;102046.09;;;12.08;71.61
62725;BME280;49026;52.600;4.694;2023-05-23T00:29:31;102053.16;;;12.07;70.89
62725;BME280;49026;52.600;4.694;2023-05-23T00:31:56;102044.41;;;12.07;71.30
62725;BME280;49026;52.600;4.694;2023-05-23T00:34:22;102049.69;;;12.05;71.98
62725;BME280;49026;52.600;4.694;2023-05-23T00:36:47;102047.09;;;12.03;71.50
62725;BME280;49026;52.600;4.694;2023-05-23T00:39:14;102060.31;;;12.02;71.32
62725;BME280;49026;52.600;4.694;2023-05-23T00:41:47;102064.78;;;12.00;71.37
62725;BME280;49026;52.600;4.694;2023-05-23T00:44:12;102060.41;;;11.99;71.01
62725;BME280;49026;52.600;4.694;2023-05-23T00:46:38;102066.59;;;11.98;71.17
62725;BME280;49026;52.600;4.694;2023-05-23T00:49:03;102064.00;;;11.96;71.57
62725;BME280;49026;52.600;4.694;2023-05-23T00:51:29;102069.28;;;11.95;71.91
62725;BME280;49026;52.600;4.694;2023-05-23T00:53:57;102069.34;;;11.93;72.24
62725;BME280;49026;52.600;4.694;2023-05-23T00:56:25;102073.78;;;11.90;71.88
62725;BME280;49026;52.600;4.694;2023-05-23T00:58:52;102075.53;;;11.89;70.86
62725;BME280;49026;52.600;4.694;2023-05-23T01:01:18;102075.53;;;11.89;70.74
62725;BME280;49026;52.600;4.694;2023-05-23T01:03:43;102072.94;;;11.87;70.72
62725;BME280;49026;52.600;4.694;2023-05-23T01:06:10;102061.56;;;11.87;70.79
62725;BME280;49026;52.600;4.694;2023-05-23T01:08:36;102067.72;;;11.86;70.69
62725;BME280;49026;52.600;4.694;2023-05-23T01:11:11;102065.97;;;11.86;70.52
62725;BME280;49026;52.600;4.694;2023-05-23T01:13:47;102073.94;;;11.83;71.07
62725;BME280;49026;52.600;4.694;2023-05-23T01:18:58;102061.59;;;11.85;71.08
62725;BME280;49026;52.600;4.694;2023-05-23T01:21:26;102070.41;;;11.84;70.21
62725;BME280;49026;52.600;4.694;2023-05-23T01:26:52;102073.88;;;11.86;70.48
62725;BME280;49026;52.600;4.694;2023-05-23T01:29:26;102069.44;;;11.87;70.15
62725;BME280;49026;52.600;4.694;2023-05-23T01:31:54;102079.13;;;11.86;70.39
62725;BME280;49026;52.600;4.694;2023-05-23T01:34:21;102079.13;;;11.86;70.96
62725;BME280;49026;52.600;4.694;2023-05-23T01:36:49;102072.97;;;11.86;70.44
62725;BME280;49026;52.600;4.694;2023-05-23T01:39:20;102072.13;;;11.85;70.50
62725;BME280;49026;52.600;4.694;2023-05-23T01:41:48;102066.97;;;11.81;71.60
62725;BME280;49026;52.600;4.694;2023-05-23T01:44:14;102082.81;;;11.79;70.75
62725;BME280;49026;52.600;4.694;2023-05-23T01:46:43;102086.44;;;11.75;70.87
62725;BME280;49026;52.600;4.694;2023-05-23T01:49:10;102092.56;;;11.76;70.52
62725;BME280;49026;52.600;4.694;2023-05-23T01:51:37;102090.81;;;11.76;70.99
62725;BME280;49026;52.600;4.694;2023-05-23T01:54:02;102093.44;;;11.76;70.87
62725;BME280;49026;52.600;4.694;2023-05-23T01:56:32;102098.75;;;11.75;70.66
62725;BME280;49026;52.600;4.694;2023-05-23T01:58:57;102100.41;;;11.77;71.16
62725;BME280;49026;52.600;4.694;2023-05-23T02:01:22;102105.75;;;11.74;71.54
62725;BME280;49026;52.600;4.694;2023-05-23T02:03:48;102106.69;;;11.73;71.80
62725;BME280;49026;52.600;4.694;2023-05-23T02:06:13;102094.47;;;11.69;71.58
62725;BME280;49026;52.600;4.694;2023-05-23T02:08:39;102108.56;;;11.68;71.36
62725;BME280;49026;52.600;4.694;2023-05-23T02:11:04;102109.50;;;11.65;71.55
62725;BME280;49026;52.600;4.694;2023-05-23T02:13:29;102112.13;;;11.65;71.08
62725;BME280;49026;52.600;4.694;2023-05-23T02:15:55;102120.03;;;11.65;71.39
62725;BME280;49026;52.600;4.694;2023-05-23T02:18:20;102113.97;;;11.62;71.60
62725;BME280;49026;52.600;4.694;2023-05-23T02:20:46;102112.22;;;11.61;71.45
62725;BME280;49026;52.600;4.694;2023-05-23T02:23:14;102120.13;;;11.61;70.98
62725;BME280;49026;52.600;4.694;2023-05-23T02:25:42;102114.00;;;11.60;71.17
62725;BME280;49026;52.600;4.694;2023-05-23T02:28:07;102111.41;;;11.59;71.00
62725;BME280;49026;52.600;4.694;2023-05-23T02:30:35;102114.97;;;11.58;71.14
62725;BME280;49026;52.600;4.694;2023-05-23T02:33:04;102110.59;;;11.57;70.98
62725;BME280;49026;52.600;4.694;2023-05-23T02:35:29;102120.25;;;11.56;70.96
62725;BME280;49026;52.600;4.694;2023-05-23T02:37:54;102116.78;;;11.54;70.53
62725;BME280;49026;52.600;4.694;2023-05-23T02:40:20;102124.78;;;11.51;70.90
62725;BME280;49026;52.600;4.694;2023-05-23T02:42:45;102104.66;;;11.47;71.05
62725;BME280;49026;52.600;4.694;2023-05-23T02:45:13;102117.94;;;11.42;71.18
62725;BME280;49026;52.600;4.694;2023-05-23T02:47:38;102117.97;;;11.41;71.20
62725;BME280;49026;52.600;4.694;2023-05-23T02:50:04;102132.03;;;11.40;70.70
62725;BME280;49026;52.600;4.694;2023-05-23T02:52:29;102127.63;;;11.40;70.72
62725;BME280;49026;52.600;4.694;2023-05-23T02:54:54;102134.72;;;11.38;70.99
62725;BME280;49026;52.600;4.694;2023-05-23T02:57:20;102131.25;;;11.36;71.29
62725;BME280;49026;52.600;4.694;2023-05-23T02:59:45;102131.38;;;11.30;71.17
62725;BME280;49026;52.600;4.694;2023-05-23T03:02:10;102131.50;;;11.24;71.19
62725;BME280;49026;52.600;4.694;2023-05-23T03:04:38;102139.47;;;11.21;71.38
62725;BME280;49026;52.600;4.694;2023-05-23T03:07:03;102144.88;;;11.15;71.99
62725;BME280;49026;52.600;4.694;2023-05-23T03:09:30;102137.13;;;11.08;71.63
62725;BME280;49026;52.600;4.694;2023-05-23T03:11:56;102142.44;;;11.05;70.76
62725;BME280;49026;52.600;4.694;2023-05-23T03:14:23;102140.75;;;11.03;71.64
62725;BME280;49026;52.600;4.694;2023-05-23T03:16:49;102143.41;;;11.01;71.69
62725;BME280;49026;52.600;4.694;2023-05-23T03:19:14;102146.97;;;10.99;70.87
62725;BME280;49026;52.600;4.694;2023-05-23T03:21:39;102147.81;;;10.99;70.38
62725;BME280;49026;52.600;4.694;2023-05-23T03:24:05;102158.41;;;10.98;70.48
62725;BME280;49026;52.600;4.694;2023-05-23T03:26:30;102165.44;;;10.96;70.59
62725;BME280;49026;52.600;4.694;2023-05-23T03:28:56;102162.84;;;10.92;70.80
62725;BME280;49026;52.600;4.694;2023-05-23T03:31:21;102172.56;;;10.89;71.02
62725;BME280;49026;52.600;4.694;2023-05-23T03:33:47;102148.13;;;10.84;70.76
62725;BME280;49026;52.600;4.694;2023-05-23T03:36:12;102166.72;;;10.76;71.40
62725;BME280;49026;52.600;4.694;2023-05-23T03:38:37;102172.88;;;10.73;70.48
62725;BME280;49026;52.600;4.694;2023-05-23T03:41:05;102176.41;;;10.72;71.24
62725;BME280;49026;52.600;4.694;2023-05-23T03:43:32;102173.78;;;10.72;71.42
62725;BME280;49026;52.600;4.694;2023-05-23T03:45:57;102173.84;;;10.69;71.22
62725;BME280;49026;52.600;4.694;2023-05-23T03:48:23;102172.13;;;10.68;71.33
62725;BME280;49026;52.600;4.694;2023-05-23T03:50:48;102163.41;;;10.66;71.02
62725;BME280;49026;52.600;4.694;2023-05-23T03:53:14;102178.34;;;10.64;72.16
62725;BME280;49026;52.600;4.694;2023-05-23T03:55:41;102178.34;;;10.64;70.76
62725;BME280;49026;52.600;4.694;2023-05-23T03:58:07;102176.56;;;10.65;70.30
62725;BME280;49026;52.600;4.694;2023-05-23T04:00:32;102180.06;;;10.65;70.76
62725;BME280;49026;52.600;4.694;2023-05-23T04:02:57;102187.88;;;10.68;70.30
62725;BME280;49026;52.600;4.694;2023-05-23T04:05:23;102189.63;;;10.69;70.32
62725;BME280;49026;52.600;4.694;2023-05-23T04:07:48;102203.59;;;10.71;70.52
62725;BME280;49026;52.600;4.694;2023-05-23T04:10:16;102195.72;;;10.71;70.97
62725;BME280;49026;52.600;4.694;2023-05-23T04:12:42;102204.50;;;10.70;70.42
62725;BME280;49026;52.600;4.694;2023-05-23T04:15:08;102191.44;;;10.66;70.41
62725;BME280;49026;52.600;4.694;2023-05-23T04:17:33;102193.25;;;10.62;71.11
62725;BME280;49026;52.600;4.694;2023-05-23T04:20:05;102201.19;;;10.59;71.24
62725;BME280;49026;52.600;4.694;2023-05-23T04:22:30;102196.88;;;10.56;70.92
62725;BME280;49026;52.600;4.694;2023-05-23T04:24:55;102213.50;;;10.57;70.49
62725;BME280;49026;52.600;4.694;2023-05-23T04:27:21;102211.75;;;10.57;70.28
62725;BME280;49026;52.600;4.694;2023-05-23T04:29:46;102216.97;;;10.59;70.09
62725;BME280;49026;52.600;4.694;2023-05-23T04:32:12;102222.16;;;10.62;71.38
62725;BME280;49026;52.600;4.694;2023-05-23T04:34:39;102221.28;;;10.63;70.67
62725;BME280;49026;52.600;4.694;2023-05-23T04:37:05;102228.22;;;10.66;70.40
62725;BME280;49026;52.600;4.694;2023-05-23T04:39:31;102218.59;;;10.66;70.48
62725;BME280;49026;52.600;4.694;2023-05-23T04:41:59;102230.84;;;10.67;70.26
62725;BME280;49026;52.600;4.694;2023-05-23T04:44:24;102232.56;;;10.68;70.53
62725;BME280;49026;52.600;4.694;2023-05-23T04:46:50;102235.22;;;10.68;70.57
62725;BME280;49026;52.600;4.694;2023-05-23T04:49:16;102222.91;;;10.70;70.42
62725;BME280;49026;52.600;4.694;2023-05-23T04:51:42;102232.50;;;10.73;70.61
62725;BME280;49026;52.600;4.694;2023-05-23T04:54:09;102230.72;;;10.73;70.59
62725;BME280;49026;52.600;4.694;2023-05-23T04:56:35;102228.94;;;10.75;70.65
62725;BME280;49026;52.600;4.694;2023-05-23T04:59:03;102238.53;;;10.78;70.71
62725;BME280;49026;52.600;4.694;2023-05-23T05:01:31;102235.06;;;10.78;71.16
62725;BME280;49026;52.600;4.694;2023-05-23T05:03:56;102235.13;;;10.73;70.93
62725;BME280;49026;52.600;4.694;2023-05-23T05:06:22;102234.38;;;10.66;71.35
62725;BME280;49026;52.600;4.694;2023-05-23T05:08:47;102244.00;;;10.66;71.73
62725;BME280;49026;52.600;4.694;2023-05-23T05:11:12;102245.75;;;10.67;71.33
62725;BME280;49026;52.600;4.694;2023-05-23T05:13:38;102250.16;;;10.66;71.38
62725;BME280;49026;52.600;4.694;2023-05-23T05:16:03;102251.94;;;10.64;72.55
62725;BME280;49026;52.600;4.694;2023-05-23T05:18:31;102257.19;;;10.64;71.29
62725;BME280;49026;52.600;4.694;2023-05-23T05:20:56;102248.44;;;10.62;71.15
62725;BME280;49026;52.600;4.694;2023-05-23T05:23:24;102259.88;;;10.61;71.96
62725;BME280;49026;52.600;4.694;2023-05-23T05:25:50;102258.13;;;10.60;71.71
62725;BME280;49026;52.600;4.694;2023-05-23T05:28:19;102258.13;;;10.60;71.19
62725;BME280;49026;52.600;4.694;2023-05-23T05:30:46;102270.41;;;10.61;71.48
62725;BME280;49026;52.600;4.694;2023-05-23T05:33:12;102278.22;;;10.64;71.34
62725;BME280;49026;52.600;4.694;2023-05-23T05:35:40;102281.75;;;10.63;71.44
62725;BME280;49026;52.600;4.694;2023-05-23T05:38:05;102283.50;;;10.64;71.76
62725;BME280;49026;52.600;4.694;2023-05-23T05:40:32;102286.94;;;10.66;72.08
62725;BME280;49026;52.600;4.694;2023-05-23T05:42:57;102297.41;;;10.71;72.84
62725;BME280;49026;52.600;4.694;2023-05-23T05:45:23;102297.28;;;10.75;71.71
62725;BME280;49026;52.600;4.694;2023-05-23T05:47:48;102302.44;;;10.82;71.35
62725;BME280;49026;52.600;4.694;2023-05-23T05:50:17;102298.84;;;10.87;71.29
62725;BME280;49026;52.600;4.694;2023-05-23T05:52:43;102307.47;;;10.94;70.65
62725;BME280;49026;52.600;4.694;2023-05-23T05:55:09;102305.75;;;10.93;70.40
62725;BME280;49026;52.600;4.694;2023-05-23T05:57:38;102300.50;;;10.93;70.50
62725;BME280;49026;52.600;4.694;2023-05-23T06:00:06;102310.09;;;10.96;70.46
62725;BME280;49026;52.600;4.694;2023-05-23T06:02:37;102310.00;;;11.00;70.30
62725;BME280;49026;52.600;4.694;2023-05-23T06:05:03;102304.63;;;11.08;70.01
62725;BME280;49026;52.600;4.694;2023-05-23T06:07:28;102307.94;;;11.18;70.18
62725;BME280;49026;52.600;4.694;2023-05-23T06:09:54;102312.91;;;11.33;69.54
62725;BME280;49026;52.600;4.694;2023-05-23T06:12:19;102305.59;;;11.46;69.39
62725;BME280;49026;52.600;4.694;2023-05-23T06:14:44;102319.44;;;11.56;69.40
62725;BME280;49026;52.600;4.694;2023-05-23T06:17:12;102317.34;;;11.73;69.40
62725;BME280;49026;52.600;4.694;2023-05-23T06:19:38;102315.25;;;11.87;68.96
62725;BME280;49026;52.600;4.694;2023-05-23T06:22:08;102312.34;;;12.03;68.97
62725;BME280;49026;52.600;4.694;2023-05-23T06:24:33;102312.84;;;12.19;69.18
62725;BME280;49026;52.600;4.694;2023-05-23T06:26:59;102308.94;;;12.35;68.82
62725;BME280;49026;52.600;4.694;2023-05-23T06:29:24;102320.13;;;12.45;68.79
62725;BME280;49026;52.600;4.694;2023-05-23T06:31:49;102326.19;;;12.49;68.16
62725;BME280;49026;52.600;4.694;2023-05-23T06:34:15;102295.94;;;12.64;68.64
62725;BME280;49026;52.600;4.694;2023-05-23T06:36:40;102307.97;;;12.74;68.69
62725;BME280;49026;52.600;4.694;2023-05-23T06:39:07;102310.41;;;12.83;68.26
62725;BME280;49026;52.600;4.694;2023-05-23T06:41:34;102316.25;;;12.93;69.00
62725;BME280;49026;52.600;4.694;2023-05-23T06:43:59;102320.69;;;12.92;67.94
62725;BME280;49026;52.600;4.694;2023-05-23T06:46:24;102323.63;;;12.82;68.32
62725;BME280;49026;52.600;4.694;2023-05-23T06:48:50;102325.66;;;12.70;68.62
62725;BME280;49026;52.600;4.694;2023-05-23T06:51:17;102317.13;;;12.59;67.94
62725;BME280;49026;52.600;4.694;2023-05-23T06:53:45;102327.75;;;12.56;68.81
62725;BME280;49026;52.600;4.694;2023-05-23T06:56:12;102324.94;;;12.64;68.97
62725;BME280;49026;52.600;4.694;2023-05-23T06:58:40;102336.25;;;12.69;68.96
62725;BME280;49026;52.600;4.694;2023-05-23T07:01:05;102327.25;;;12.76;68.88
62725;BME280;49026;52.600;4.694;2023-05-23T07:03:31;102324.31;;;12.88;68.79
62725;BME280;49026;52.600;4.694;2023-05-23T07:05:56;102324.94;;;12.98;69.13
62725;BME280;49026;52.600;4.694;2023-05-23T07:08:24;102336.03;;;13.11;69.92
62725;BME280;49026;52.600;4.694;2023-05-23T07:10:49;102328.59;;;13.25;69.20
62725;BME280;49026;52.600;4.694;2023-05-23T07:13:15;102338.84;;;13.38;68.13
62725;BME280;49026;52.600;4.694;2023-05-23T07:15:40;102333.56;;;13.38;67.23
62725;BME280;49026;52.600;4.694;2023-05-23T07:18:08;102339.38;;;13.50;69.18
62725;BME280;49026;52.600;4.694;2023-05-23T07:20:35;102346.91;;;13.64;68.26
62725;BME280;49026;52.600;4.694;2023-05-23T07:23:00;102342.25;;;13.73;69.07
62725;BME280;49026;52.600;4.694;2023-05-23T07:25:26;102343.66;;;13.84;67.73
62725;BME280;49026;52.600;4.694;2023-05-23T07:27:52;102348.09;;;13.84;67.90
62725;BME280;49026;52.600;4.694;2023-05-23T07:30:19;102354.19;;;13.86;68.90
62725;BME280;49026;52.600;4.694;2023-05-23T07:32:45;102357.38;;;13.67;67.53
62725;BME280;49026;52.600;4.694;2023-05-23T07:35:12;102366.19;;;13.37;67.06
62725;BME280;49026;52.600;4.694;2023-05-23T07:37:37;102369.38;;;13.15;67.08
62725;BME280;49026;52.600;4.694;2023-05-23T07:40:04;102369.19;;;13.21;67.95
62725;BME280;49026;52.600;4.694;2023-05-23T07:42:29;102365.50;;;13.28;68.25
62725;BME280;49026;52.600;4.694;2023-05-23T07:44:57;102332.41;;;13.48;68.18
62725;BME280;49026;52.600;4.694;2023-05-23T07:47:24;102365.88;;;13.79;67.36
62725;BME280;49026;52.600;4.694;2023-05-23T07:49:50;102366.00;;;14.04;66.63
62725;BME280;49026;52.600;4.694;2023-05-23T07:52:16;102370.53;;;14.29;65.29
62725;BME280;49026;52.600;4.694;2023-05-23T07:54:41;102367.88;;;14.57;68.28
62725;BME280;49026;52.600;4.694;2023-05-23T07:57:07;102369.59;;;15.11;69.13
62725;BME280;49026;52.600;4.694;2023-05-23T07:59:33;102387.75;;;15.47;68.92
62725;BME280;49026;52.600;4.694;2023-05-23T08:01:58;102371.16;;;15.42;68.63
62725;BME280;49026;52.600;4.694;2023-05-23T08:04:24;102356.63;;;15.29;68.96
62725;BME280;49026;52.600;4.694;2023-05-23T08:06:49;102369.38;;;15.17;67.66
62725;BME280;49026;52.600;4.694;2023-05-23T08:09:14;102370.03;;;14.99;67.16
62725;BME280;49026;52.600;4.694;2023-05-23T08:11:42;102372.97;;;14.90;67.37
62725;BME280;49026;52.600;4.694;2023-05-23T08:14:07;102369.31;;;14.94;67.37
62725;BME280;49026;52.600;4.694;2023-05-23T08:16:33;102378.34;;;15.13;68.43
62725;BME280;49026;52.600;4.694;2023-05-23T08:19:02;102380.22;;;15.10;67.33
62725;BME280;49026;52.600;4.694;2023-05-23T08:21:27;102382.03;;;14.82;66.74
62725;BME280;49026;52.600;4.694;2023-05-23T08:23:53;102377.66;;;14.53;66.48
62725;BME280;49026;52.600;4.694;2023-05-23T08:26:20;102388.00;;;14.33;67.26
62725;BME280;49026;52.600;4.694;2023-05-23T08:28:46;102387.63;;;14.17;67.33
62725;BME280;49026;52.600;4.694;2023-05-23T08:31:12;102382.72;;;14.04;66.33
62725;BME280;49026;52.600;4.694;2023-05-23T08:33:38;102386.97;;;14.10;66.70
62725;BME280;49026;52.600;4.694;2023-05-23T08:36:03;102383.88;;;14.24;64.82
62725;BME280;49026;52.600;4.694;2023-05-23T08:38:28;102368.25;;;14.44;65.66
62725;BME280;49026;52.600;4.694;2023-05-23T08:40:55;102383.94;;;14.51;66.27
62725;BME280;49026;52.600;4.694;2023-05-23T08:43:20;102391.16;;;14.45;65.50
62725;BME280;49026;52.600;4.694;2023-05-23T08:45:52;102380.13;;;14.31;65.20
62725;BME280;49026;52.600;4.694;2023-05-23T08:48:20;102387.34;;;14.26;65.50
62725;BME280;49026;52.600;4.694;2023-05-23T08:50:47;102397.66;;;14.35;64.87
62725;BME280;49026;52.600;4.694;2023-05-23T08:53:16;102403.03;;;14.32;65.33
62725;BME280;49026;52.600;4.694;2023-05-23T08:55:48;102398.28;;;14.43;66.00
62725;BME280;49026;52.600;4.694;2023-05-23T08:58:16;102390.03;;;14.53;65.09
62725;BME280;49026;52.600;4.694;2023-05-23T09:00:46;102393.13;;;14.67;64.60
62725;BME280;49026;52.600;4.694;2023-05-23T09:03:12;102389.84;;;14.87;66.03
62725;BME280;49026;52.600;4.694;2023-05-23T09:05:38;102407.56;;;14.85;65.75
62725;BME280;49026;52.600;4.694;2023-05-23T09:08:06;102396.50;;;14.72;65.31
62725;BME280;49026;52.600;4.694;2023-05-23T09:10:32;102407.19;;;14.69;65.41
62725;BME280;49026;52.600;4.694;2023-05-23T09:13:00;102410.06;;;14.61;64.66
62725;BME280;49026;52.600;4.694;2023-05-23T09:15:26;102417.94;;;14.63;65.10
62725;BME280;49026;52.600;4.694;2023-05-23T09:17:51;102407.06;;;14.72;64.94
62725;BME280;49026;52.600;4.694;2023-05-23T09:20:17;102414.75;;;14.80;64.67
62725;BME280;49026;52.600;4.694;2023-05-23T09:22:47;102416.63;;;14.76;64.30
62725;BME280;49026;52.600;4.694;2023-05-23T09:25:15;102418.94;;;14.87;63.90
62725;BME280;49026;52.600;4.694;2023-05-23T09:27:43;102423.44;;;14.85;64.00
62725;BME280;49026;52.600;4.694;2023-05-23T09:30:12;102425.50;;;15.02;64.27
62725;BME280;49026;52.600;4.694;2023-05-23T09:32:38;102397.84;;;15.11;64.51
62725;BME280;49026;52.600;4.694;2023-05-23T09:35:07;102405.75;;;15.12;64.61
62725;BME280;49026;52.600;4.694;2023-05-23T09:37:38;102425.13;;;14.86;64.66
62725;BME280;49026;52.600;4.694;2023-05-23T09:40:09;102431.03;;;14.68;64.21
62725;BME280;49026;52.600;4.694;2023-05-23T09:42:40;102439.50;;;14.79;64.64
62725;BME280;49026;52.600;4.694;2023-05-23T09:45:06;102437.91;;;15.00;65.41
62725;BME280;49026;52.600;4.694;2023-05-23T09:47:31;102446.63;;;15.30;64.71
62725;BME280;49026;52.600;4.694;2023-05-23T09:49:59;102440.63;;;15.50;65.45
62725;BME280;49026;52.600;4.694;2023-05-23T09:52:34;102441.63;;;15.71;64.83
62725;BME280;49026;52.600;4.694;2023-05-23T09:55:00;102448.81;;;15.68;64.75
62725;BME280;49026;52.600;4.694;2023-05-23T09:57:25;102439.19;;;15.40;64.24
62725;BME280;49026;52.600;4.694;2023-05-23T09:59:52;102453.88;;;15.25;64.43
62725;BME280;49026;52.600;4.694;2023-05-23T10:03:11;102444.31;;;15.19;63.63
62725;BME280;49026;52.600;4.694;2023-05-23T10:05:37;102436.28;;;15.48;64.44
62725;BME280;49026;52.600;4.694;2023-05-23T10:08:29;102447.28;;;15.37;62.88
62725;BME280;49026;52.600;4.694;2023-05-23T10:13:26;102451.13;;;15.27;63.21
62725;BME280;49026;52.600;4.694;2023-05-23T10:21:49;102462.09;;;14.61;62.92
62725;BME280;49026;52.600;4.694;2023-05-23T10:24:15;102461.34;;;14.86;64.51
62725;BME280;49026;52.600;4.694;2023-05-23T10:26:42;102453.09;;;15.47;65.01
62725;BME280;49026;52.600;4.694;2023-05-23T10:29:09;102464.84;;;15.90;63.90
62725;BME280;49026;52.600;4.694;2023-05-23T10:31:37;102444.69;;;15.61;62.18
62725;BME280;49026;52.600;4.694;2023-05-23T10:37:28;102461.66;;;15.80;63.15
62725;BME280;49026;52.600;4.694;2023-05-23T10:42:48;102455.56;;;16.49;62.02
62725;BME280;49026;52.600;4.694;2023-05-23T10:45:19;102460.53;;;16.57;61.40
62725;BME280;49026;52.600;4.694;2023-05-23T10:47:51;102447.13;;;16.38;61.98
62725;BME280;49026;52.600;4.694;2023-05-23T10:50:33;102475.75;;;15.82;60.15
62725;BME280;49026;52.600;4.694;2023-05-23T10:53:00;102461.63;;;15.55;62.10
62725;BME280;49026;52.600;4.694;2023-05-23T10:55:30;102467.28;;;15.71;63.24
62725;BME280;49026;52.600;4.694;2023-05-23T10:58:15;102469.28;;;16.13;63.50
62725;BME280;49026;52.600;4.694;2023-05-23T11:00:58;102476.44;;;16.11;62.03
62725;BME280;49026;52.600;4.694;2023-05-23T11:03:31;102468.38;;;16.14;63.46
62725;BME280;49026;52.600;4.694;2023-05-23T11:06:01;102472.63;;;16.18;63.63
62725;BME280;49026;52.600;4.694;2023-05-23T11:08:27;102473.44;;;16.20;62.60
62725;BME280;49026;52.600;4.694;2023-05-23T11:11:03;102463.00;;;16.39;62.40
62725;BME280;49026;52.600;4.694;2023-05-23T11:13:57;102457.13;;;16.75;63.20
62725;BME280;49026;52.600;4.694;2023-05-23T11:16:31;102474.81;;;16.54;61.76
62725;BME280;49026;52.600;4.694;2023-05-23T11:21:51;102481.91;;;16.06;61.90
62725;BME280;49026;52.600;4.694;2023-05-23T11:24:19;102480.81;;;16.36;63.47
62725;BME280;49026;52.600;4.694;2023-05-23T11:27:01;102475.53;;;16.58;63.20
62725;BME280;49026;52.600;4.694;2023-05-23T11:29:28;102488.50;;;16.65;63.04
62725;BME280;49026;52.600;4.694;2023-05-23T11:31:54;102465.22;;;16.72;61.91
62725;BME280;49026;52.600;4.694;2023-05-23T11:34:26;102474.28;;;16.90;62.12
62725;BME280;49026;52.600;4.694;2023-05-23T11:36:53;102472.84;;;17.03;62.21
62725;BME280;49026;52.600;4.694;2023-05-23T11:39:18;102488.22;;;16.95;61.69
62725;BME280;49026;52.600;4.694;2023-05-23T11:41:57;102489.34;;;16.44;60.28
62725;BME280;49026;52.600;4.694;2023-05-23T11:44:22;102481.63;;;16.14;61.61
62725;BME280;49026;52.600;4.694;2023-05-23T11:47:00;102488.31;;;16.24;60.67
62725;BME280;49026;52.600;4.694;2023-05-23T11:49:30;102484.84;;;16.46;60.25
62725;BME280;49026;52.600;4.694;2023-05-23T11:52:00;102487.81;;;16.60;61.00
62725;BME280;49026;52.600;4.694;2023-05-23T11:54:25;102484.78;;;16.47;59.75
62725;BME280;49026;52.600;4.694;2023-05-23T11:56:51;102499.13;;;16.42;60.85
62725;BME280;49026;52.600;4.694;2023-05-23T11:59:17;102483.34;;;16.62;58.55
62725;BME280;49026;52.600;4.694;2023-05-23T12:01:43;102481.75;;;16.79;59.24
62725;BME280;49026;52.600;4.694;2023-05-23T12:04:09;102485.50;;;16.97;58.56
62725;BME280;49026;52.600;4.694;2023-05-23T12:06:41;102494.19;;;17.22;60.23
62725;BME280;49026;52.600;4.694;2023-05-23T12:09:07;102491.25;;;17.51;59.66
62725;BME280;49026;52.600;4.694;2023-05-23T12:11:37;102487.03;;;17.66;59.22
62725;BME280;49026;52.600;4.694;2023-05-23T12:14:03;102492.59;;;17.39;56.58
62725;BME280;49026;52.600;4.694;2023-05-23T12:16:31;102489.75;;;17.23;59.27
62725;BME280;49026;52.600;4.694;2023-05-23T12:18:58;102480.44;;;17.33;58.68
62725;BME280;49026;52.600;4.694;2023-05-23T12:21:39;102489.34;;;17.32;59.16
62725;BME280;49026;52.600;4.694;2023-05-23T12:24:31;102475.31;;;17.29;56.36
62725;BME280;49026;52.600;4.694;2023-05-23T12:26:58;102502.81;;;16.85;57.49
62725;BME280;49026;52.600;4.694;2023-05-23T12:29:34;102501.69;;;16.45;58.05
62725;BME280;49026;52.600;4.694;2023-05-23T12:32:01;102498.22;;;16.43;58.71
62725;BME280;49026;52.600;4.694;2023-05-23T12:34:27;102503.16;;;16.76;59.56
62725;BME280;49026;52.600;4.694;2023-05-23T12:36:58;102506.66;;;17.20;58.67
62725;BME280;49026;52.600;4.694;2023-05-23T12:39:26;102502.44;;;17.37;56.51
62725;BME280;49026;52.600;4.694;2023-05-23T12:41:51;102509.13;;;17.25;57.58
62725;BME280;49026;52.600;4.694;2023-05-23T12:44:19;102502.28;;;17.19;57.92
62725;BME280;49026;52.600;4.694;2023-05-23T12:46:44;102502.72;;;17.09;58.09
62725;BME280;49026;52.600;4.694;2023-05-23T12:49:10;102500.59;;;16.96;57.00
62725;BME280;49026;52.600;4.694;2023-05-23T12:51:35;102504.25;;;16.70;57.43
62725;BME280;49026;52.600;4.694;2023-05-23T12:54:00;102506.31;;;16.85;57.24
62725;BME280;49026;52.600;4.694;2023-05-23T12:56:26;102520.84;;;17.21;56.90
62725;BME280;49026;52.600;4.694;2023-05-23T12:58:51;102502.34;;;17.18;56.80
62725;BME280;49026;52.600;4.694;2023-05-23T13:01:18;102517.34;;;16.75;56.41
62725;BME280;49026;52.600;4.694;2023-05-23T13:03:44;102516.44;;;16.76;56.52
62725;BME280;49026;52.600;4.694;2023-05-23T13:06:09;102511.75;;;16.82;56.15
62725;BME280;49026;52.600;4.694;2023-05-23T13:08:34;102507.25;;;16.84;57.05
62725;BME280;49026;52.600;4.694;2023-05-23T13:11:00;102517.00;;;16.84;56.96
62725;BME280;49026;52.600;4.694;2023-05-23T13:13:25;102508.66;;;16.93;57.16